createdAt,value
2023-03-15T00:01:24.331Z,4.33
2023-03-15T00:03:52.306Z,4.34
2023-03-15T00:06:20.249Z,4.11
2023-03-15T00:08:49.517Z,4.09
2023-03-15T00:11:18.259Z,4.01
2023-03-15T00:13:47.077Z,4.22
2023-03-15T00:16:17.674Z,4.26
2023-03-15T00:18:47.207Z,4.28
2023-03-15T00:21:16.183Z,4.18
2023-03-15T00:23:44.130Z,4.13
2023-03-15T00:26:14.031Z,4.12
2023-03-15T00:28:42.438Z,4.07
2023-03-15T00:31:15.777Z,3.89
2023-03-15T00:33:43.880Z,3.74
2023-03-15T00:36:13.045Z,3.64
2023-03-15T00:38:43.995Z,3.68
2023-03-15T00:41:15.262Z,3.63
2023-03-15T00:43:43.583Z,3.46
2023-03-15T00:46:12.203Z,3.46
2023-03-15T00:48:40.185Z,3.47
2023-03-15T00:51:10.170Z,3.33
2023-03-15T00:53:39.773Z,3.25
2023-03-15T00:56:10.213Z,3.22
2023-03-15T00:58:40.334Z,3.24
2023-03-15T01:01:08.974Z,3.33
2023-03-15T01:03:37.171Z,3.26
2023-03-15T01:06:09.254Z,3.32
2023-03-15T01:08:37.143Z,3.35
2023-03-15T01:11:05.524Z,3.38
2023-03-15T01:13:33.487Z,3.37
2023-03-15T01:16:02.825Z,3.39
2023-03-15T01:18:31.244Z,3.36
2023-03-15T01:20:59.604Z,3.45
2023-03-15T01:23:27.904Z,3.52
2023-03-15T01:25:55.823Z,3.44
2023-03-15T01:28:23.728Z,3.47
2023-03-15T01:30:52.220Z,3.46
2023-03-15T01:33:21.912Z,3.53
2023-03-15T01:35:50.346Z,3.43
2023-03-15T01:38:18.281Z,3.47
2023-03-15T01:40:47.414Z,3.34
2023-03-15T01:43:17.937Z,3.11
2023-03-15T01:46:03.009Z,3.02
2023-03-15T01:48:38.153Z,2.98
2023-03-15T01:51:12.000Z,2.85
2023-03-15T01:53:41.276Z,2.61
2023-03-15T01:56:10.785Z,2.55
2023-03-15T01:58:42.189Z,2.47
2023-03-15T02:01:11.366Z,2.50
2023-03-15T02:03:46.621Z,2.57
2023-03-15T02:06:18.400Z,2.69
2023-03-15T02:08:51.006Z,2.64
2023-03-15T02:11:21.671Z,2.46
2023-03-15T02:13:50.679Z,2.42
2023-03-15T02:16:19.749Z,2.35
2023-03-15T02:18:49.414Z,2.14
2023-03-15T02:21:29.105Z,1.96
2023-03-15T02:24:07.812Z,1.95
2023-03-15T02:26:41.612Z,2.03
2023-03-15T02:29:11.093Z,2.05
2023-03-15T02:31:39.304Z,2.03
2023-03-15T02:34:08.663Z,1.94
2023-03-15T02:36:37.796Z,1.93
2023-03-15T02:39:15.913Z,1.85
2023-03-15T02:41:46.355Z,1.77
2023-03-15T02:44:20.047Z,1.77
2023-03-15T02:46:51.384Z,1.76
2023-03-15T02:49:21.607Z,1.66
2023-03-15T02:51:49.445Z,1.53
2023-03-15T02:54:17.321Z,1.39
2023-03-15T02:56:45.186Z,1.39
2023-03-15T02:59:13.422Z,1.33
2023-03-15T03:01:45.879Z,1.17
2023-03-15T03:04:13.941Z,1.17
2023-03-15T03:06:43.928Z,1.14
2023-03-15T03:09:12.248Z,1.10
2023-03-15T03:11:40.167Z,1.14
2023-03-15T03:14:08.053Z,1.14
2023-03-15T03:16:35.979Z,1.04
2023-03-15T03:19:05.298Z,1.01
2023-03-15T03:21:33.349Z,1.05
2023-03-15T03:24:01.668Z,0.81
2023-03-15T03:26:32.701Z,0.80
2023-03-15T03:29:00.674Z,0.91
2023-03-15T03:31:29.330Z,1.12
2023-03-15T03:33:57.873Z,1.00
2023-03-15T03:36:27.332Z,1.08
2023-03-15T03:38:55.298Z,1.09
2023-03-15T03:41:23.123Z,1.14
2023-03-15T03:43:50.995Z,1.18
2023-03-15T03:46:18.970Z,1.20
2023-03-15T03:48:46.878Z,1.12
2023-03-15T03:51:14.789Z,1.12
2023-03-15T03:53:44.041Z,0.72
2023-03-15T03:56:11.966Z,0.59
2023-03-15T03:58:39.914Z,0.45
2023-03-15T04:01:07.980Z,0.84
2023-03-15T04:03:35.849Z,0.84
2023-03-15T04:06:05.741Z,0.87
2023-03-15T04:08:33.748Z,1.10
2023-03-15T04:11:04.179Z,1.15
2023-03-15T04:13:32.309Z,1.05
2023-03-15T04:16:01.533Z,0.89
2023-03-15T04:18:29.658Z,0.82
2023-03-15T04:20:57.529Z,0.71
2023-03-15T04:23:25.738Z,0.65
2023-03-15T04:25:55.333Z,0.58
2023-03-15T04:28:24.830Z,0.53
2023-03-15T04:30:52.820Z,0.54
2023-03-15T04:33:24.570Z,0.44
2023-03-15T04:35:52.905Z,0.44
2023-03-15T04:38:26.990Z,0.60
2023-03-15T04:40:55.573Z,0.76
2023-03-15T04:43:25.410Z,0.51
2023-03-15T04:45:53.321Z,0.72
2023-03-15T04:48:21.230Z,0.63
2023-03-15T04:50:49.097Z,0.59
2023-03-15T04:53:16.966Z,0.59
2023-03-15T04:55:44.871Z,0.53
2023-03-15T04:58:12.722Z,0.43
2023-03-15T05:00:42.077Z,0.50
2023-03-15T05:03:09.989Z,0.44
2023-03-15T05:05:37.929Z,0.37
2023-03-15T05:08:06.155Z,0.54
2023-03-15T05:10:34.406Z,0.43
2023-03-15T05:13:02.368Z,0.20
2023-03-15T05:15:30.264Z,0.18
2023-03-15T05:17:59.535Z,-0.12
2023-03-15T05:20:27.549Z,-0.35
2023-03-15T05:22:55.418Z,-0.24
2023-03-15T05:25:24.468Z,-0.05
2023-03-15T05:27:52.911Z,0.27
2023-03-15T05:30:21.683Z,0.40
2023-03-15T05:32:49.586Z,0.35
2023-03-15T05:35:19.056Z,0.23
2023-03-15T05:37:46.915Z,0.30
2023-03-15T05:40:15.501Z,0.31
2023-03-15T05:42:43.345Z,0.38
2023-03-15T05:45:12.313Z,0.37
2023-03-15T05:47:40.542Z,0.27
2023-03-15T05:50:09.105Z,0.16
2023-03-15T05:52:38.360Z,0.13
2023-03-15T05:55:06.963Z,-0.09
2023-03-15T05:57:34.885Z,-0.28
2023-03-15T06:00:05.198Z,-0.20
2023-03-15T06:02:33.082Z,-0.08
2023-03-15T06:05:00.999Z,-0.06
2023-03-15T06:07:28.998Z,0.02
2023-03-15T06:09:58.370Z,0.16
2023-03-15T06:12:26.377Z,0.13
2023-03-15T06:14:54.278Z,0.13
2023-03-15T06:17:22.164Z,0.24
2023-03-15T06:19:50.073Z,0.38
2023-03-15T06:22:20.583Z,0.16
2023-03-15T06:24:48.703Z,0.26
2023-03-15T06:27:22.049Z,0.30
2023-03-15T06:29:50.550Z,0.39
2023-03-15T06:32:18.535Z,0.32
2023-03-15T06:34:46.463Z,0.39
2023-03-15T06:37:22.720Z,0.46
2023-03-15T06:39:54.550Z,0.58
2023-03-15T06:42:23.881Z,0.66
2023-03-15T06:44:51.755Z,0.81
2023-03-15T06:47:19.675Z,0.82
2023-03-15T06:49:50.389Z,0.94
2023-03-15T06:52:18.788Z,0.89
2023-03-15T06:54:46.763Z,0.89
2023-03-15T06:57:14.678Z,0.97
2023-03-15T06:59:43.960Z,1.00
2023-03-15T07:02:15.579Z,1.10
2023-03-15T07:04:44.669Z,1.17
2023-03-15T07:07:12.645Z,1.20
2023-03-15T07:09:41.156Z,1.30
2023-03-15T07:12:11.201Z,1.29
2023-03-15T07:14:39.107Z,1.47
2023-03-15T07:17:08.520Z,1.55
2023-03-15T07:19:41.401Z,1.63
2023-03-15T07:22:15.042Z,1.74
2023-03-15T07:24:42.902Z,1.84
2023-03-15T07:27:16.117Z,1.91
2023-03-15T07:29:44.991Z,1.96
2023-03-15T07:32:14.302Z,2.00
2023-03-15T07:34:42.449Z,2.15
2023-03-15T07:37:10.445Z,2.13
2023-03-15T07:39:38.338Z,2.28
2023-03-15T07:42:07.315Z,2.39
2023-03-15T07:44:35.217Z,2.46
2023-03-15T07:47:03.081Z,2.49
2023-03-15T07:49:34.672Z,2.59
2023-03-15T07:52:03.787Z,2.68
2023-03-15T07:54:32.099Z,2.77
2023-03-15T07:57:00.001Z,2.89
2023-03-15T07:59:27.962Z,3.03
2023-03-15T08:01:56.145Z,3.22
2023-03-15T08:04:24.104Z,3.47
2023-03-15T08:06:53.395Z,3.42
2023-03-15T08:09:21.306Z,3.58
2023-03-15T08:11:49.218Z,3.79
2023-03-15T08:14:17.125Z,3.87
2023-03-15T08:16:45.077Z,3.78
2023-03-15T08:19:13.095Z,3.99
2023-03-15T08:21:45.496Z,4.20
2023-03-15T08:24:15.449Z,4.19
2023-03-15T08:26:43.813Z,4.29
2023-03-15T08:29:11.981Z,4.25
2023-03-15T08:31:40.306Z,4.33
2023-03-15T08:34:08.267Z,4.49
2023-03-15T08:36:36.181Z,4.62
2023-03-15T08:39:05.622Z,4.69
2023-03-15T08:41:35.217Z,4.78
2023-03-15T08:44:03.099Z,5.10
2023-03-15T08:46:31.372Z,4.87
2023-03-15T08:48:59.232Z,5.03
2023-03-15T08:51:27.516Z,4.97
2023-03-15T08:53:55.386Z,5.13
2023-03-15T08:56:23.529Z,5.30
2023-03-15T08:58:52.754Z,5.35
2023-03-15T09:01:20.658Z,5.62
2023-03-15T09:03:48.494Z,5.45
2023-03-15T09:06:16.356Z,5.59
2023-03-15T09:08:44.198Z,5.76
2023-03-15T09:11:12.051Z,5.77
2023-03-15T09:13:39.919Z,5.84
2023-03-15T09:16:09.509Z,5.71
2023-03-15T09:18:37.381Z,5.92
2023-03-15T09:21:06.990Z,6.06
2023-03-15T09:23:34.960Z,6.08
2023-03-15T09:26:03.204Z,6.14
2023-03-15T09:28:31.079Z,6.15
2023-03-15T09:31:00.089Z,6.18
2023-03-15T09:33:29.507Z,6.11
2023-03-15T09:35:57.444Z,6.15
2023-03-15T09:38:25.400Z,6.20
2023-03-15T09:40:59.047Z,6.20
2023-03-15T09:43:55.292Z,6.50
2023-03-15T09:46:29.087Z,6.51
2023-03-15T09:49:01.726Z,6.49
2023-03-15T09:51:42.534Z,6.51
2023-03-15T09:54:13.981Z,6.54
2023-03-15T09:56:49.391Z,6.44
2023-03-15T09:59:22.815Z,6.34
2023-03-15T10:01:55.339Z,6.84
2023-03-15T10:04:29.933Z,6.97
2023-03-15T10:06:59.454Z,7.00
2023-03-15T10:09:33.130Z,6.94
2023-03-15T10:12:05.709Z,7.03
2023-03-15T10:14:53.737Z,7.04
2023-03-15T10:17:30.792Z,7.14
2023-03-15T10:20:06.387Z,6.95
2023-03-15T10:22:40.647Z,7.19
2023-03-15T10:25:17.761Z,7.40
2023-03-15T10:27:50.759Z,7.23
2023-03-15T10:30:21.535Z,7.55
2023-03-15T10:32:53.860Z,7.50
2023-03-15T10:35:23.165Z,7.66
2023-03-15T10:37:51.207Z,7.83
2023-03-15T10:40:41.013Z,7.80
2023-03-15T10:43:15.704Z,7.83
2023-03-15T10:45:43.573Z,7.70
2023-03-15T10:48:11.508Z,8.16
2023-03-15T10:50:41.212Z,8.51
2023-03-15T10:53:20.648Z,8.25
2023-03-15T10:55:49.894Z,8.05
2023-03-15T10:58:27.556Z,8.09
2023-03-15T11:01:01.141Z,8.24
2023-03-15T11:03:29.767Z,8.43
2023-03-15T11:06:00.402Z,8.58
2023-03-15T11:08:38.784Z,8.39
2023-03-15T11:11:07.821Z,8.49
2023-03-15T11:13:37.280Z,8.14
2023-03-15T11:16:08.433Z,8.82
2023-03-15T11:18:38.914Z,8.68
2023-03-15T11:21:14.175Z,8.51
2023-03-15T11:23:45.793Z,8.40
2023-03-15T11:26:31.604Z,8.28
2023-03-15T11:29:03.386Z,8.63
2023-03-15T11:31:32.320Z,8.67
2023-03-15T11:34:04.621Z,8.79
2023-03-15T11:36:37.842Z,8.84
2023-03-15T11:39:06.870Z,8.82
2023-03-15T11:41:38.414Z,8.66
2023-03-15T11:44:16.157Z,8.64
2023-03-15T11:46:48.529Z,9.01
2023-03-15T11:49:21.107Z,8.80
2023-03-15T11:51:50.984Z,8.80
2023-03-15T11:54:20.994Z,8.79
2023-03-15T11:56:55.254Z,8.88
2023-03-15T11:59:28.868Z,8.57
2023-03-15T12:01:59.615Z,8.38
2023-03-15T12:04:38.108Z,8.19
2023-03-15T12:07:25.547Z,8.03
2023-03-15T12:09:56.357Z,8.40
2023-03-15T12:12:37.735Z,8.14
2023-03-15T12:15:08.950Z,7.95
2023-03-15T12:17:45.313Z,8.48
2023-03-15T12:20:27.883Z,8.86
2023-03-15T12:23:19.044Z,8.33
2023-03-15T12:25:55.499Z,8.78
2023-03-15T12:28:28.655Z,8.69
2023-03-15T12:30:59.346Z,8.88
2023-03-15T12:33:29.193Z,9.32
2023-03-15T12:36:06.380Z,9.52
2023-03-15T12:38:43.879Z,9.78
2023-03-15T12:41:41.564Z,9.69
2023-03-15T12:44:27.742Z,9.30
2023-03-15T12:46:59.531Z,9.81
2023-03-15T12:49:36.503Z,10.04
2023-03-15T12:52:09.741Z,10.07
2023-03-15T12:54:46.464Z,9.67
2023-03-15T12:57:22.068Z,9.51
2023-03-15T12:59:54.934Z,9.14
2023-03-15T13:02:42.306Z,9.43
2023-03-15T13:05:19.801Z,9.59
2023-03-15T13:07:56.527Z,10.02
2023-03-15T13:10:41.036Z,9.77
2023-03-15T13:13:22.819Z,9.68
2023-03-15T13:16:07.256Z,9.76
2023-03-15T13:18:43.132Z,9.97
2023-03-15T13:21:20.292Z,9.63
2023-03-15T13:23:53.101Z,9.56
2023-03-15T13:26:41.144Z,9.31
2023-03-15T13:29:17.498Z,9.93
2023-03-15T13:31:48.063Z,10.17
2023-03-15T13:34:20.762Z,10.21
2023-03-15T13:36:54.698Z,9.83
2023-03-15T13:39:24.972Z,10.11
2023-03-15T13:42:01.096Z,10.13
2023-03-15T13:44:31.237Z,10.13
2023-03-15T13:47:01.333Z,10.02
2023-03-15T13:49:32.960Z,10.26
2023-03-15T13:52:05.485Z,10.31
2023-03-15T13:54:35.383Z,9.98
2023-03-15T13:57:08.497Z,10.32
2023-03-15T13:59:43.143Z,10.56
2023-03-15T14:02:16.964Z,10.70
2023-03-15T14:04:52.773Z,10.08
2023-03-15T14:07:27.894Z,10.42
2023-03-15T14:10:24.473Z,10.09
2023-03-15T14:12:54.990Z,10.22
2023-03-15T14:15:26.635Z,10.54
2023-03-15T14:18:02.204Z,10.47
2023-03-15T14:20:33.683Z,10.05
2023-03-15T14:23:03.564Z,10.16
2023-03-15T14:25:36.738Z,10.01
2023-03-15T14:28:07.297Z,9.91
2023-03-15T14:30:37.851Z,10.23
2023-03-15T14:33:08.942Z,10.09
2023-03-15T14:35:44.352Z,9.91
2023-03-15T14:38:19.193Z,9.49
2023-03-15T14:40:47.939Z,9.29
2023-03-15T14:43:17.385Z,9.34
2023-03-15T14:45:47.932Z,9.34
2023-03-15T14:48:22.393Z,9.38
2023-03-15T14:50:50.539Z,9.40
2023-03-15T14:53:21.390Z,9.50
2023-03-15T14:55:49.344Z,9.06
2023-03-15T14:58:21.250Z,8.98
2023-03-15T15:00:50.766Z,9.06
2023-03-15T15:03:22.361Z,9.01
2023-03-15T15:05:51.356Z,8.70
2023-03-15T15:08:22.402Z,8.91
2023-03-15T15:10:53.040Z,8.91
2023-03-15T15:13:24.184Z,9.01
2023-03-15T15:15:56.080Z,8.89
2023-03-15T15:18:26.030Z,8.70
2023-03-15T15:20:56.104Z,8.94
2023-03-15T15:23:27.643Z,9.08
2023-03-15T15:25:58.302Z,9.62
2023-03-15T15:28:36.149Z,9.56
2023-03-15T15:31:06.552Z,9.90
2023-03-15T15:33:34.458Z,9.93
2023-03-15T15:36:04.850Z,9.72
2023-03-15T15:38:39.021Z,9.33
2023-03-15T15:41:13.145Z,9.65
2023-03-15T15:43:42.770Z,9.77
2023-03-15T15:46:13.672Z,10.54
2023-03-15T15:48:43.024Z,10.71
2023-03-15T15:51:26.195Z,10.47
2023-03-15T15:53:55.144Z,10.70
2023-03-15T15:56:27.307Z,10.65
2023-03-15T15:58:57.526Z,9.92
2023-03-15T16:01:26.404Z,10.04
2023-03-15T16:03:54.408Z,9.96
2023-03-15T16:06:23.428Z,9.61
2023-03-15T16:08:53.651Z,9.57
2023-03-15T16:11:22.253Z,9.44
2023-03-15T16:13:53.944Z,9.26
2023-03-15T16:16:23.298Z,8.92
2023-03-15T16:18:51.265Z,8.93
2023-03-15T16:21:26.709Z,8.76
2023-03-15T16:23:58.016Z,8.88
2023-03-15T16:26:26.189Z,8.79
2023-03-15T16:28:54.094Z,8.74
2023-03-15T16:31:23.584Z,8.55
2023-03-15T16:33:51.824Z,8.54
2023-03-15T16:36:20.920Z,8.47
2023-03-15T16:38:49.428Z,8.61
2023-03-15T16:41:18.588Z,8.53
2023-03-15T16:43:49.119Z,8.49
2023-03-15T16:46:18.357Z,8.48
2023-03-15T16:48:49.577Z,8.28
2023-03-15T16:51:18.039Z,8.16
2023-03-15T16:53:46.163Z,8.07
2023-03-15T16:56:15.794Z,8.06
2023-03-15T16:58:45.294Z,8.08
2023-03-15T17:01:13.265Z,8.12
2023-03-15T17:03:41.193Z,8.09
2023-03-15T17:06:20.118Z,8.17
2023-03-15T17:08:49.108Z,8.11
2023-03-15T17:11:18.032Z,8.15
2023-03-15T17:13:46.136Z,7.91
2023-03-15T17:16:15.332Z,7.96
2023-03-15T17:18:44.290Z,8.03
2023-03-15T17:21:15.438Z,7.97
2023-03-15T17:23:44.129Z,7.90
2023-03-15T17:26:14.803Z,7.76
2023-03-15T17:28:43.680Z,7.61
2023-03-15T17:31:30.808Z,7.52
2023-03-15T17:33:58.790Z,7.21
2023-03-15T17:36:34.089Z,7.17
2023-03-15T17:39:02.841Z,7.04
2023-03-15T17:41:32.572Z,7.00
2023-03-15T17:44:00.744Z,6.88
2023-03-15T17:46:30.352Z,6.82
2023-03-15T17:48:59.256Z,6.64
2023-03-15T17:51:31.449Z,6.68
2023-03-15T17:54:00.410Z,6.65
2023-03-15T17:56:29.296Z,6.55
2023-03-15T17:58:57.536Z,6.49
2023-03-15T18:01:28.273Z,6.43
2023-03-15T18:03:57.205Z,6.37
2023-03-15T18:06:25.341Z,6.38
2023-03-15T18:08:54.621Z,6.36
2023-03-15T18:11:26.636Z,6.29
2023-03-15T18:13:55.012Z,6.32
2023-03-15T18:16:23.161Z,6.21
2023-03-15T18:18:51.174Z,6.22
2023-03-15T18:21:21.557Z,6.16
2023-03-15T18:23:50.626Z,6.27
2023-03-15T18:26:21.602Z,6.23
2023-03-15T18:28:49.941Z,6.19
2023-03-15T18:31:20.784Z,6.16
2023-03-15T18:33:49.507Z,6.24
2023-03-15T18:36:18.071Z,6.15
2023-03-15T18:38:46.670Z,6.07
2023-03-15T18:41:19.841Z,6.03
2023-03-15T18:43:51.520Z,5.85
2023-03-15T18:46:21.098Z,5.68
2023-03-15T18:48:50.012Z,5.65
2023-03-15T18:51:18.760Z,5.59
2023-03-15T18:53:47.177Z,5.65
2023-03-15T18:56:19.738Z,5.66
2023-03-15T18:58:50.076Z,5.61
2023-03-15T19:01:18.308Z,5.48
2023-03-15T19:03:46.668Z,5.45
2023-03-15T19:06:14.955Z,5.34
2023-03-15T19:08:42.913Z,5.33
2023-03-15T19:11:11.406Z,5.40
2023-03-15T19:13:39.473Z,5.42
2023-03-15T19:16:09.295Z,5.44
2023-03-15T19:18:37.150Z,5.43
2023-03-15T19:21:05.337Z,5.43
2023-03-15T19:23:34.303Z,5.19
2023-03-15T19:26:02.216Z,5.12
2023-03-15T19:28:30.449Z,4.85
2023-03-15T19:30:58.740Z,4.96
2023-03-15T19:33:28.019Z,5.02
2023-03-15T19:35:56.088Z,5.00
2023-03-15T19:38:23.972Z,4.95
2023-03-15T19:40:55.191Z,5.03
2023-03-15T19:43:23.795Z,5.14
2023-03-15T19:45:51.775Z,5.18
2023-03-15T19:48:19.743Z,5.24
2023-03-15T19:50:49.661Z,5.24
2023-03-15T19:53:18.106Z,5.28
2023-03-15T19:55:46.094Z,5.23
2023-03-15T19:58:14.553Z,5.05
2023-03-15T20:00:42.495Z,4.97
2023-03-15T20:03:12.615Z,4.86
2023-03-15T20:05:40.590Z,4.86
2023-03-15T20:08:10.417Z,4.79
2023-03-15T20:10:38.347Z,4.86
2023-03-15T20:13:06.232Z,4.77
2023-03-15T20:15:34.145Z,4.64
2023-03-15T20:18:02.553Z,4.56
2023-03-15T20:20:30.530Z,4.51
2023-03-15T20:22:58.525Z,4.49
2023-03-15T20:25:28.221Z,4.40
2023-03-15T20:27:56.072Z,4.41
2023-03-15T20:30:24.755Z,4.19
2023-03-15T20:32:53.577Z,4.29
2023-03-15T20:35:21.579Z,4.02
2023-03-15T20:37:49.550Z,3.92
2023-03-15T20:40:18.885Z,3.93
2023-03-15T20:42:48.137Z,4.04
2023-03-15T20:45:16.044Z,3.96
2023-03-15T20:47:43.918Z,4.00
2023-03-15T20:50:13.228Z,3.98
2023-03-15T20:52:42.663Z,3.91
2023-03-15T20:55:11.724Z,3.85
2023-03-15T20:57:42.165Z,3.93
2023-03-15T21:00:18.148Z,3.90
2023-03-15T21:02:46.865Z,4.03
2023-03-15T21:05:16.278Z,3.92
2023-03-15T21:07:45.091Z,3.82
2023-03-15T21:10:14.810Z,3.87
2023-03-15T21:12:44.040Z,3.85
2023-03-15T21:15:17.574Z,3.76
2023-03-15T21:17:46.005Z,3.73
2023-03-15T21:20:15.554Z,3.72
2023-03-15T21:22:43.664Z,3.64
2023-03-15T21:25:11.602Z,3.55
2023-03-15T21:27:39.535Z,3.41
2023-03-15T21:30:08.683Z,3.49
2023-03-15T21:32:38.713Z,3.42
2023-03-15T21:35:07.652Z,3.37
2023-03-15T21:37:35.623Z,3.44
2023-03-15T21:40:04.354Z,3.36
2023-03-15T21:42:33.370Z,3.35
2023-03-15T21:45:01.233Z,3.27
2023-03-15T21:47:29.179Z,3.25
2023-03-15T21:49:58.434Z,3.27
2023-03-15T21:52:26.414Z,3.23
2023-03-15T21:54:54.305Z,3.24
2023-03-15T21:57:22.792Z,3.17
2023-03-15T21:59:51.490Z,3.18
2023-03-15T22:02:20.061Z,3.07
2023-03-15T22:04:48.098Z,3.10
2023-03-15T22:07:18.504Z,3.04
2023-03-15T22:09:46.413Z,2.98
2023-03-15T22:12:15.571Z,2.79
2023-03-15T22:14:44.675Z,3.01
2023-03-15T22:17:13.816Z,2.94
2023-03-15T22:19:41.674Z,2.99
2023-03-15T22:22:10.010Z,2.98
2023-03-15T22:24:39.452Z,2.77
2023-03-15T22:27:07.697Z,2.75
2023-03-15T22:29:35.821Z,2.75
2023-03-15T22:32:03.993Z,2.84
2023-03-15T22:34:34.392Z,2.83
2023-03-15T22:37:03.401Z,2.92
2023-03-15T22:39:32.321Z,2.38
2023-03-15T22:42:01.797Z,2.35
2023-03-15T22:44:30.598Z,2.40
2023-03-15T22:46:58.560Z,2.51
2023-03-15T22:49:26.406Z,2.60
2023-03-15T22:51:54.311Z,2.55
2023-03-15T22:54:22.395Z,2.18
2023-03-15T22:56:50.320Z,2.00
2023-03-15T22:59:19.631Z,2.09
2023-03-15T23:01:51.434Z,1.65
2023-03-15T23:04:19.579Z,1.59
2023-03-15T23:06:47.575Z,1.67
2023-03-15T23:09:15.477Z,1.86
2023-03-15T23:11:43.415Z,1.74
2023-03-15T23:14:16.300Z,1.69
2023-03-15T23:16:45.638Z,1.81
2023-03-15T23:19:15.586Z,1.96
2023-03-15T23:21:45.011Z,2.12
2023-03-15T23:24:23.279Z,2.10
2023-03-15T23:26:58.356Z,1.98
2023-03-15T23:29:29.295Z,1.91
2023-03-15T23:31:58.795Z,1.82
2023-03-15T23:34:27.088Z,1.88
2023-03-15T23:36:55.409Z,2.01
2023-03-15T23:39:23.411Z,1.96
2023-03-15T23:41:51.499Z,1.92
2023-03-15T23:44:20.038Z,1.98
2023-03-15T23:46:49.137Z,1.95
2023-03-15T23:49:19.005Z,2.01
2023-03-15T23:51:48.546Z,1.77
2023-03-15T23:54:16.930Z,1.76
2023-03-15T23:56:45.023Z,1.61
2023-03-15T23:59:12.980Z,1.46
